Flight Track Log - Related Links

Times and Time Zones

All times are in EDT time to prevent confusion due to time zone crossing. See the N8554A flight status page for this flight to view local times or setup timezone preferences in your user account.

Time Position Orientation Groundspeed Altitude Reporting Facility
EDT Latitude Longitude Course Direction KTS MPH feet Rate Location/Type
Wed 09:54:13 AM 38.0747 -87.5672 27° Northeast 247 284 4,900  Level Indianapolis Center
Wed 09:59:13 AM 38.4500 -87.3228 28° Northeast 331 381 15,100 1,850 Climbing Indianapolis Center
Wed 10:00:13 AM 38.5436 -87.2586 29° Northeast 356 410 16,000 893 Climbing Indianapolis Center
Wed 10:01:14 AM 38.6397 -87.1917 28° Northeast 373 429 16,900 958 Climbing Indianapolis Center
Wed 10:02:12 AM 38.7397 -87.1247 29° Northeast 391 450 17,900 1,068 Climbing Indianapolis Center
Wed 10:03:12 AM 38.8356 -87.0575 28° Northeast 391 450 19,000 1,059 Climbing Indianapolis Center
Wed 10:04:11 AM 38.9378 -86.9878 29° Northeast 396 456 20,000 1,000 Climbing Indianapolis Center
Wed 10:05:12 AM 39.0442 -86.9125 30° Northeast 396 456 21,000 1,041 Climbing Indianapolis Center
Wed 10:06:12 AM 39.1400 -86.8422 28° Northeast 396 456 22,100 942 Climbing Indianapolis Center
Wed 10:07:13 AM 39.2272 -86.7819 28° Northeast 391 450 22,900 446 Climbing Indianapolis Center
Wed 10:08:13 AM 39.3292 -86.7114 29° Northeast 401 461 23,000 50 Climbing Indianapolis Center
Wed 10:09:13 AM 39.4333 -86.6378 28° Northeast 410 472 23,000  Level Indianapolis Center
Wed 10:10:14 AM 39.5394 -86.5644 28° Northeast 425 489 23,000  Level Indianapolis Center
Wed 10:11:11 AM 39.6478 -86.4881 31° Northeast 431 496 23,000  Level Indianapolis Center
Wed 10:13:30 AM 39.9075 -86.2808 38° Northeast 444 511 23,000  Level Chicago Center
Wed 10:14:30 AM 39.9947 -86.1928 38° Northeast 449 517 23,000  Level Chicago Center
Wed 10:15:30 AM 40.0919 -86.0931 37° Northeast 444 511 23,000  Level Chicago Center
Wed 10:16:30 AM 40.1914 -85.9958 38° Northeast 450 518 23,000  Level Chicago Center
Wed 10:17:30 AM 40.2906 -85.8956 38° Northeast 442 509 23,000  Level Chicago Center
Wed 10:18:30 AM 40.3875 -85.7978 38° Northeast 442 509 23,000  Level Chicago Center
Wed 10:19:30 AM 40.4786 -85.7056 38° Northeast 428 493 23,000  Level Chicago Center
Wed 10:20:30 AM 40.5756 -85.6072 38° Northeast 410 472 23,000 -50 Level Chicago Center
Wed 10:21:30 AM 40.6642 -85.5147 38° Northeast 404 465 22,900 -600 Descending Chicago Center
Wed 10:22:30 AM 40.7506 -85.4247 39° Northeast 404 465 21,800 -950 Descending Chicago Center
Wed 10:23:30 AM 40.8292 -85.3403 38° Northeast 404 465 21,000 -950 Descending Chicago Center
Wed 10:24:30 AM 40.9175 -85.2497 38° Northeast 405 466 19,900 -719 Descending Chicago Center
Wed 10:26:17 AM 41.0833 -85.0794 40° Northeast 405 466 19,000 -323 Descending Cleveland Center
Wed 10:27:17 AM 41.1664 -84.9858 39° Northeast 405 466 19,000  Level Cleveland Center
Wed 10:28:17 AM 41.2511 -84.8950 39° Northeast 393 452 19,000  Level Cleveland Center
Wed 10:29:17 AM 41.3358 -84.8036 38° Northeast 393 452 19,000  Level Cleveland Center
Wed 10:30:17 AM 41.4206 -84.7150 40° Northeast 393 452 19,000 -250 Level Cleveland Center
Wed 10:31:17 AM 41.4922 -84.6336 39° Northeast 388 447 18,500 -750 Descending Cleveland Center
Wed 10:32:17 AM 41.5767 -84.5417 40° Northeast 388 447 17,500 -1,000 Descending Cleveland Center
Wed 10:33:17 AM 41.6569 -84.4522 57° Northeast 381 438 16,500 -1,190 Descending Cleveland Center
Wed 10:34:18 AM 41.7197 -84.3222 63° Northeast 369 425 15,100 -1,438 Descending Cleveland Center
Wed 10:35:18 AM 41.7606 -84.2133 64° Northeast 361 415 13,600 -1,500 Descending Cleveland Center
Wed 10:36:18 AM 41.8086 -84.0822 53° Northeast 378 435 12,100 -800 Descending Cleveland Center
Wed 10:37:18 AM 41.8789 -83.9578 43° Northeast 378 435 12,000 -50 Descending Cleveland Center
Wed 10:38:17 AM 41.9525 -83.8667 43° Northeast 373 429 12,000  Level Cleveland Center
Wed 10:39:17 AM 42.0303 -83.7703 44° Northeast 361 415 12,000  Level Cleveland Center
Wed 10:40:17 AM 42.0953 -83.6867 42° Northeast 341 392 12,000  Level Cleveland Center
Wed 10:41:24 AM 42.1519 -83.6175 42° Northeast 257 296 12,000  Level FAA TRACON SMA TRACON (SMA)
Wed 10:42:04 AM 42.1878 -83.5744 24° Northeast 254 292 12,000  Level FAA TRACON SMA TRACON (SMA)
Wed 10:42:44 AM 42.2286 -83.5494 22° Northeast 257 296 12,000 -375 Level FAA TRACON SMA TRACON (SMA)
Wed 10:43:24 AM 42.2739 -83.5250 21° North 255 293 11,500 -911 Descending FAA TRACON SMA TRACON (SMA)
Wed 10:44:03 AM 42.3178 -83.5022 21° North 242 278 10,800 -1,050 Descending FAA TRACON SMA TRACON (SMA)
Wed 10:44:44 AM 42.3567 -83.4822 22° Northeast 242 278 10,100 -1,259 Descending FAA TRACON SMA TRACON (SMA)
Wed 10:45:24 AM 42.3992 -83.4592 23° Northeast 236 272 9,100 -1,350 Descending FAA TRACON SMA TRACON (SMA)
Wed 10:46:04 AM 42.4419 -83.4347 41° Northeast 241 277 8,300 -1,275 Descending FAA TRACON SMA TRACON (SMA)
Wed 10:46:44 AM 42.4761 -83.3944 101° East 243 280 7,400 -1,455 Descending FAA TRACON SMA TRACON (SMA)
Wed 10:47:43 AM 42.4647 -83.3178 161° South 218 251 5,900 -1,260 Descending FAA TRACON SMA TRACON (SMA)
Wed 10:48:24 AM 42.4303 -83.3019 173° South 202 232 5,300 -1,037 Descending FAA TRACON SMA TRACON (SMA)
Wed 10:49:04 AM 42.3944 -83.2956 175° South 189 217 4,500 -1,200 Descending FAA TRACON SMA TRACON (SMA)
Wed 10:49:44 AM 42.3592 -83.2917 175° South 192 221 3,700 -1,200 Descending FAA TRACON SMA TRACON (SMA)

Login

Don't have an account? Register now (free) for customized features, flight alerts, and more!